sensor_id;sensor_type;location;lat;lon;timestamp;pressure;altitude;pressure_sealevel;temperature;humidity
52319;BME280;38258;51.148;14.068;2023-11-19T00:01:01;98375.00;;;1.35;100.00
52319;BME280;38258;51.148;14.068;2023-11-19T00:03:32;98376.75;;;1.40;100.00
52319;BME280;38258;51.148;14.068;2023-11-19T00:06:00;98381.94;;;1.47;100.00
52319;BME280;38258;51.148;14.068;2023-11-19T00:08:28;98370.72;;;1.37;100.00
52319;BME280;38258;51.148;14.068;2023-11-19T00:10:55;98385.28;;;1.33;100.00
52319;BME280;38258;51.148;14.068;2023-11-19T00:13:21;98369.00;;;1.37;100.00
52319;BME280;38258;51.148;14.068;2023-11-19T00:15:48;98362.97;;;1.37;100.00
52319;BME280;38258;51.148;14.068;2023-11-19T00:18:15;98362.88;;;1.27;100.00
52319;BME280;38258;51.148;14.068;2023-11-19T00:20:43;98326.78;;;1.23;100.00
52319;BME280;38258;51.148;14.068;2023-11-19T00:23:10;98318.09;;;1.13;100.00
52319;BME280;38258;51.148;14.068;2023-11-19T00:25:37;98294.91;;;1.11;100.00
52319;BME280;38258;51.148;14.068;2023-11-19T00:28:04;98286.34;;;1.16;100.00
52319;BME280;38258;51.148;14.068;2023-11-19T00:30:31;98284.66;;;1.18;100.00
52319;BME280;38258;51.148;14.068;2023-11-19T00:32:59;98287.22;;;1.15;100.00
52319;BME280;38258;51.148;14.068;2023-11-19T00:35:25;98286.34;;;1.16;100.00
52319;BME280;38258;51.148;14.068;2023-11-19T00:37:53;98288.00;;;1.07;100.00
52319;BME280;38258;51.148;14.068;2023-11-19T00:40:20;98275.19;;;1.13;100.00
52319;BME280;38258;51.148;14.068;2023-11-19T00:42:48;98280.31;;;1.12;100.00
52319;BME280;38258;51.148;14.068;2023-11-19T00:45:15;98282.91;;;1.13;100.00
52319;BME280;38258;51.148;14.068;2023-11-19T00:47:42;98276.88;;;1.13;100.00
52319;BME280;38258;51.148;14.068;2023-11-19T00:50:09;98287.16;;;1.10;100.00
52319;BME280;38258;51.148;14.068;2023-11-19T00:52:37;98288.91;;;1.12;100.00
52319;BME280;38258;51.148;14.068;2023-11-19T00:55:06;98259.69;;;1.12;100.00
52319;BME280;38258;51.148;14.068;2023-11-19T00:57:33;98269.19;;;1.18;100.00
52319;BME280;38258;51.148;14.068;2023-11-19T01:00:01;98244.31;;;1.18;100.00
52319;BME280;38258;51.148;14.068;2023-11-19T01:02:29;98254.59;;;1.20;100.00
52319;BME280;38258;51.148;14.068;2023-11-19T01:04:56;98248.66;;;1.24;100.00
52319;BME280;38258;51.148;14.068;2023-11-19T01:07:22;98233.16;;;1.19;100.00
52319;BME280;38258;51.148;14.068;2023-11-19T01:09:51;98214.19;;;1.14;100.00
52319;BME280;38258;51.148;14.068;2023-11-19T01:12:18;98207.34;;;1.18;100.00
52319;BME280;38258;51.148;14.068;2023-11-19T01:14:45;98224.56;;;1.17;100.00
52319;BME280;38258;51.148;14.068;2023-11-19T01:17:12;98213.38;;;1.18;100.00
52319;BME280;38258;51.148;14.068;2023-11-19T01:19:39;98222.78;;;1.11;100.00
52319;BME280;38258;51.148;14.068;2023-11-19T01:22:05;98206.47;;;1.12;100.00
52319;BME280;38258;51.148;14.068;2023-11-19T01:24:32;98186.72;;;1.08;100.00
52319;BME280;38258;51.148;14.068;2023-11-19T01:26:59;98185.84;;;1.11;100.00
52319;BME280;38258;51.148;14.068;2023-11-19T01:29:28;98188.41;;;1.05;100.00
52319;BME280;38258;51.148;14.068;2023-11-19T01:31:54;98175.56;;;1.09;100.00
52319;BME280;38258;51.148;14.068;2023-11-19T01:34:21;98188.41;;;1.05;100.00
52319;BME280;38258;51.148;14.068;2023-11-19T01:36:48;98179.81;;;1.07;100.00
52319;BME280;38258;51.148;14.068;2023-11-19T01:39:15;98184.13;;;1.08;100.00
52319;BME280;38258;51.148;14.068;2023-11-19T01:41:43;98178.09;;;1.05;100.00
52319;BME280;38258;51.148;14.068;2023-11-19T01:44:09;98173.78;;;1.05;100.00
52319;BME280;38258;51.148;14.068;2023-11-19T01:46:40;98159.25;;;1.10;100.00
52319;BME280;38258;51.148;14.068;2023-11-19T01:49:07;98151.50;;;1.12;100.00
52319;BME280;38258;51.148;14.068;2023-11-19T01:51:35;98157.56;;;1.17;100.00
52319;BME280;38258;51.148;14.068;2023-11-19T01:54:02;98150.69;;;1.16;100.00
52319;BME280;38258;51.148;14.068;2023-11-19T01:56:30;98146.38;;;1.17;100.00
52319;BME280;38258;51.148;14.068;2023-11-19T01:58:59;98133.50;;;1.20;100.00
52319;BME280;38258;51.148;14.068;2023-11-19T02:01:27;98119.78;;;1.16;100.00
52319;BME280;38258;51.148;14.068;2023-11-19T02:03:56;98106.03;;;1.20;100.00
52319;BME280;38258;51.148;14.068;2023-11-19T02:06:24;98107.78;;;1.23;100.00
52319;BME280;38258;51.148;14.068;2023-11-19T02:08:52;98103.47;;;1.23;100.00
52319;BME280;38258;51.148;14.068;2023-11-19T02:11:19;98093.16;;;1.23;100.00
52319;BME280;38258;51.148;14.068;2023-11-19T02:13:46;98088.84;;;1.21;100.00
52319;BME280;38258;51.148;14.068;2023-11-19T02:16:12;98078.56;;;1.25;100.00
52319;BME280;38258;51.148;14.068;2023-11-19T02:18:39;98056.28;;;1.29;100.00
52319;BME280;38258;51.148;14.068;2023-11-19T02:21:07;98055.38;;;1.25;100.00
52319;BME280;38258;51.148;14.068;2023-11-19T02:23:36;98048.53;;;1.27;100.00
52319;BME280;38258;51.148;14.068;2023-11-19T02:26:10;98052.81;;;1.27;100.00
52319;BME280;38258;51.148;14.068;2023-11-19T02:28:42;98031.34;;;1.28;100.00
52319;BME280;38258;51.148;14.068;2023-11-19T02:31:09;98016.75;;;1.27;100.00
52319;BME280;38258;51.148;14.068;2023-11-19T02:33:36;98017.63;;;1.34;100.00
52319;BME280;38258;51.148;14.068;2023-11-19T02:36:04;98013.31;;;1.34;100.00
52319;BME280;38258;51.148;14.068;2023-11-19T02:38:32;98013.34;;;1.37;100.00
52319;BME280;38258;51.148;14.068;2023-11-19T02:41:00;98012.47;;;1.34;100.00
52319;BME280;38258;51.148;14.068;2023-11-19T02:43:27;97999.59;;;1.37;100.00
52319;BME280;38258;51.148;14.068;2023-11-19T02:45:58;97992.72;;;1.39;100.00
52319;BME280;38258;51.148;14.068;2023-11-19T02:48:24;97995.31;;;1.42;100.00
52319;BME280;38258;51.148;14.068;2023-11-19T02:50:51;97985.88;;;1.46;100.00
52319;BME280;38258;51.148;14.068;2023-11-19T02:53:18;97982.44;;;1.44;100.00
52319;BME280;38258;51.148;14.068;2023-11-19T02:55:47;97967.84;;;1.47;100.00
52319;BME280;38258;51.148;14.068;2023-11-19T02:58:15;97975.56;;;1.49;100.00
52319;BME280;38258;51.148;14.068;2023-11-19T03:00:49;97960.97;;;1.49;100.00
52319;BME280;38258;51.148;14.068;2023-11-19T03:03:24;97952.38;;;1.50;100.00
52319;BME280;38258;51.148;14.068;2023-11-19T03:05:54;97946.34;;;1.54;100.00
52319;BME280;38258;51.148;14.068;2023-11-19T03:08:21;97930.06;;;1.59;100.00
52319;BME280;38258;51.148;14.068;2023-11-19T03:10:49;97923.16;;;1.54;100.00
52319;BME280;38258;51.148;14.068;2023-11-19T03:13:16;97913.72;;;1.58;100.00
52319;BME280;38258;51.148;14.068;2023-11-19T03:15:43;97924.88;;;1.60;100.00
52319;BME280;38258;51.148;14.068;2023-11-19T03:18:10;97920.59;;;1.56;100.00
52319;BME280;38258;51.148;14.068;2023-11-19T03:20:38;97914.59;;;1.66;100.00
52319;BME280;38258;51.148;14.068;2023-11-19T03:23:06;97893.94;;;1.73;100.00
52319;BME280;38258;51.148;14.068;2023-11-19T03:25:32;97888.75;;;1.71;100.00
52319;BME280;38258;51.148;14.068;2023-11-19T03:28:00;97892.22;;;1.64;100.00
52319;BME280;38258;51.148;14.068;2023-11-19T03:30:28;97909.41;;;1.73;100.00
52319;BME280;38258;51.148;14.068;2023-11-19T03:32:55;97884.50;;;1.73;100.00
52319;BME280;38258;51.148;14.068;2023-11-19T03:35:21;97891.34;;;1.80;100.00
52319;BME280;38258;51.148;14.068;2023-11-19T03:37:50;97891.34;;;1.73;100.00
52319;BME280;38258;51.148;14.068;2023-11-19T03:40:17;97889.63;;;1.79;100.00
52319;BME280;38258;51.148;14.068;2023-11-19T03:42:45;97880.16;;;1.84;100.00
52319;BME280;38258;51.148;14.068;2023-11-19T03:45:12;97872.44;;;1.83;100.00
52319;BME280;38258;51.148;14.068;2023-11-19T03:47:40;97867.28;;;1.83;100.00
52319;BME280;38258;51.148;14.068;2023-11-19T03:50:07;97863.84;;;1.82;100.00
52319;BME280;38258;51.148;14.068;2023-11-19T03:52:34;97858.69;;;1.82;100.00
52319;BME280;38258;51.148;14.068;2023-11-19T03:55:03;97856.97;;;1.88;100.00
52319;BME280;38258;51.148;14.068;2023-11-19T03:57:30;97846.63;;;1.86;100.00
52319;BME280;38258;51.148;14.068;2023-11-19T03:59:57;97832.91;;;1.81;100.00
52319;BME280;38258;51.148;14.068;2023-11-19T04:02:24;97838.91;;;1.86;100.00
52319;BME280;38258;51.148;14.068;2023-11-19T04:04:54;97837.19;;;1.90;100.00
52319;BME280;38258;51.148;14.068;2023-11-19T04:07:21;97840.59;;;1.95;100.00
52319;BME280;38258;51.148;14.068;2023-11-19T04:09:48;97834.59;;;1.90;100.00
52319;BME280;38258;51.148;14.068;2023-11-19T04:12:16;97831.16;;;1.94;100.00
52319;BME280;38258;51.148;14.068;2023-11-19T04:14:43;97828.59;;;1.91;100.00
52319;BME280;38258;51.148;14.068;2023-11-19T04:17:10;97818.28;;;1.88;100.00
52319;BME280;38258;51.148;14.068;2023-11-19T04:19:36;97809.66;;;1.92;100.00
52319;BME280;38258;51.148;14.068;2023-11-19T04:22:07;97793.34;;;1.85;100.00
52319;BME280;38258;51.148;14.068;2023-11-19T04:24:34;97792.50;;;1.81;100.00
52319;BME280;38258;51.148;14.068;2023-11-19T04:27:01;97806.22;;;1.83;100.00
52319;BME280;38258;51.148;14.068;2023-11-19T04:29:30;97802.81;;;1.81;100.00
52319;BME280;38258;51.148;14.068;2023-11-19T04:31:57;97781.34;;;1.81;100.00
52319;BME280;38258;51.148;14.068;2023-11-19T04:34:24;97805.38;;;1.83;100.00
52319;BME280;38258;51.148;14.068;2023-11-19T04:36:51;97789.06;;;1.79;100.00
52319;BME280;38258;51.148;14.068;2023-11-19T04:39:18;97780.47;;;1.71;100.00
52319;BME280;38258;51.148;14.068;2023-11-19T04:41:48;97770.16;;;1.71;100.00
52319;BME280;38258;51.148;14.068;2023-11-19T04:44:21;97785.63;;;1.71;100.00
52319;BME280;38258;51.148;14.068;2023-11-19T04:46:49;97771.88;;;1.74;100.00
52319;BME280;38258;51.148;14.068;2023-11-19T04:49:16;97768.47;;;1.73;100.00
52319;BME280;38258;51.148;14.068;2023-11-19T04:51:44;97761.59;;;1.67;100.00
52319;BME280;38258;51.148;14.068;2023-11-19T04:54:12;97747.84;;;1.67;100.00
52319;BME280;38258;51.148;14.068;2023-11-19T04:56:39;97750.41;;;1.67;100.00
52319;BME280;38258;51.148;14.068;2023-11-19T04:59:06;97739.25;;;1.66;100.00
52319;BME280;38258;51.148;14.068;2023-11-19T05:01:34;97733.22;;;1.71;100.00
52319;BME280;38258;51.148;14.068;2023-11-19T05:04:02;97738.38;;;1.64;100.00
52319;BME280;38258;51.148;14.068;2023-11-19T05:06:30;97734.09;;;1.69;100.00
52319;BME280;38258;51.148;14.068;2023-11-19T05:08:58;97725.50;;;1.67;100.00
52319;BME280;38258;51.148;14.068;2023-11-19T05:11:26;97728.94;;;1.66;100.00
52319;BME280;38258;51.148;14.068;2023-11-19T05:13:53;97728.06;;;1.71;100.00
52319;BME280;38258;51.148;14.068;2023-11-19T05:16:20;97724.63;;;1.73;100.00
52319;BME280;38258;51.148;14.068;2023-11-19T05:18:47;97735.78;;;1.74;100.00
52319;BME280;38258;51.148;14.068;2023-11-19T05:21:15;97734.97;;;1.68;100.00
52319;BME280;38258;51.148;14.068;2023-11-19T05:23:42;97722.91;;;1.64;100.00
52319;BME280;38258;51.148;14.068;2023-11-19T05:26:17;97726.34;;;1.71;100.00
52319;BME280;38258;51.148;14.068;2023-11-19T05:28:44;97724.63;;;1.70;100.00
52319;BME280;38258;51.148;14.068;2023-11-19T05:31:11;97722.94;;;1.66;100.00
52319;BME280;38258;51.148;14.068;2023-11-19T05:33:37;97710.91;;;1.66;100.00
52319;BME280;38258;51.148;14.068;2023-11-19T05:36:05;97710.88;;;1.63;100.00
52319;BME280;38258;51.148;14.068;2023-11-19T05:38:35;97704.91;;;1.63;100.00
52319;BME280;38258;51.148;14.068;2023-11-19T05:41:01;97696.31;;;1.59;100.00
52319;BME280;38258;51.148;14.068;2023-11-19T05:43:28;97686.91;;;1.52;100.00
52319;BME280;38258;51.148;14.068;2023-11-19T05:45:55;97685.16;;;1.57;100.00
52319;BME280;38258;51.148;14.068;2023-11-19T05:48:22;97686.00;;;1.56;100.00
52319;BME280;38258;51.148;14.068;2023-11-19T05:50:49;97686.00;;;1.56;100.00
52319;BME280;38258;51.148;14.068;2023-11-19T05:53:16;97671.41;;;1.58;100.00
52319;BME280;38258;51.148;14.068;2023-11-19T05:55:44;97679.09;;;1.61;100.00
52319;BME280;38258;51.148;14.068;2023-11-19T05:58:14;97666.22;;;1.57;100.00
52319;BME280;38258;51.148;14.068;2023-11-19T06:00:41;97665.38;;;1.58;100.00
52319;BME280;38258;51.148;14.068;2023-11-19T06:03:07;97660.22;;;1.58;100.00
52319;BME280;38258;51.148;14.068;2023-11-19T06:05:34;97662.00;;;1.51;100.00
52319;BME280;38258;51.148;14.068;2023-11-19T06:08:01;97666.25;;;1.55;100.00
52319;BME280;38258;51.148;14.068;2023-11-19T06:10:27;97648.19;;;1.61;100.00
52319;BME280;38258;51.148;14.068;2023-11-19T06:12:59;97659.34;;;1.63;100.00
52319;BME280;38258;51.148;14.068;2023-11-19T06:15:26;97655.00;;;1.70;100.00
52319;BME280;38258;51.148;14.068;2023-11-19T06:17:53;97661.03;;;1.71;100.00
52319;BME280;38258;51.148;14.068;2023-11-19T06:20:20;97656.75;;;1.65;100.00
52319;BME280;38258;51.148;14.068;2023-11-19T06:22:47;97646.41;;;1.74;100.00
52319;BME280;38258;51.148;14.068;2023-11-19T06:25:14;97630.94;;;1.73;100.00
52319;BME280;38258;51.148;14.068;2023-11-19T06:27:41;97628.31;;;1.79;100.00
52319;BME280;38258;51.148;14.068;2023-11-19T06:30:10;97608.56;;;1.79;100.00
52319;BME280;38258;51.148;14.068;2023-11-19T06:32:38;97608.53;;;1.84;100.00
52319;BME280;38258;51.148;14.068;2023-11-19T06:35:06;97608.53;;;1.84;100.00
52319;BME280;38258;51.148;14.068;2023-11-19T06:37:33;97593.00;;;1.90;100.00
52319;BME280;38258;51.148;14.068;2023-11-19T06:40:00;97595.56;;;1.93;100.00
52319;BME280;38258;51.148;14.068;2023-11-19T06:42:28;97594.69;;;1.99;100.00
52319;BME280;38258;51.148;14.068;2023-11-19T06:44:55;97605.88;;;2.01;100.00
52319;BME280;38258;51.148;14.068;2023-11-19T06:47:25;97591.16;;;2.09;100.00
52319;BME280;38258;51.148;14.068;2023-11-19T06:49:52;97598.00;;;2.15;100.00
52319;BME280;38258;51.148;14.068;2023-11-19T06:52:19;97615.97;;;2.29;100.00
52319;BME280;38258;51.148;14.068;2023-11-19T06:54:46;97602.22;;;2.29;100.00
52319;BME280;38258;51.148;14.068;2023-11-19T06:57:13;97597.06;;;2.30;100.00
52319;BME280;38258;51.148;14.068;2023-11-19T06:59:40;97616.84;;;2.30;100.00
52319;BME280;38258;51.148;14.068;2023-11-19T07:02:07;97617.66;;;2.38;100.00
52319;BME280;38258;51.148;14.068;2023-11-19T07:04:35;97602.19;;;2.32;100.00
52319;BME280;38258;51.148;14.068;2023-11-19T07:07:02;97602.19;;;2.33;100.00
52319;BME280;38258;51.148;14.068;2023-11-19T07:09:30;97606.47;;;2.33;100.00
52319;BME280;38258;51.148;14.068;2023-11-19T07:11:58;97595.34;;;2.28;100.00
52319;BME280;38258;51.148;14.068;2023-11-19T07:14:25;97597.00;;;2.36;100.00
52319;BME280;38258;51.148;14.068;2023-11-19T07:16:52;97606.50;;;2.31;100.00
52319;BME280;38258;51.148;14.068;2023-11-19T07:19:19;97597.00;;;2.36;100.00
52319;BME280;38258;51.148;14.068;2023-11-19T07:21:47;97608.22;;;2.32;100.00
52319;BME280;38258;51.148;14.068;2023-11-19T07:24:14;97606.41;;;2.40;100.00
52319;BME280;38258;51.148;14.068;2023-11-19T07:26:42;97607.31;;;2.36;100.00
52319;BME280;38258;51.148;14.068;2023-11-19T07:29:10;97605.59;;;2.35;100.00
52319;BME280;38258;51.148;14.068;2023-11-19T07:31:36;97612.47;;;2.36;100.00
52319;BME280;38258;51.148;14.068;2023-11-19T07:34:03;97609.91;;;2.35;100.00
52319;BME280;38258;51.148;14.068;2023-11-19T07:36:30;97615.94;;;2.35;100.00
52319;BME280;38258;51.148;14.068;2023-11-19T07:38:59;97613.25;;;2.46;100.00
52319;BME280;38258;51.148;14.068;2023-11-19T07:41:26;97605.50;;;2.48;100.00
52319;BME280;38258;51.148;14.068;2023-11-19T07:43:53;97616.69;;;2.51;100.00
52319;BME280;38258;51.148;14.068;2023-11-19T07:46:20;97615.78;;;2.56;100.00
52319;BME280;38258;51.148;14.068;2023-11-19T07:48:47;97610.53;;;2.63;100.00
52319;BME280;38258;51.148;14.068;2023-11-19T07:51:14;97599.31;;;2.69;100.00
52319;BME280;38258;51.148;14.068;2023-11-19T07:53:41;97595.00;;;2.65;100.00
52319;BME280;38258;51.148;14.068;2023-11-19T07:56:10;97603.56;;;2.75;100.00
52319;BME280;38258;51.148;14.068;2023-11-19T07:58:36;97606.94;;;2.81;100.00
52319;BME280;38258;51.148;14.068;2023-11-19T08:01:04;97608.66;;;2.82;100.00
52319;BME280;38258;51.148;14.068;2023-11-19T08:03:31;97610.38;;;2.80;100.00
52319;BME280;38258;51.148;14.068;2023-11-19T08:05:59;97610.38;;;2.80;100.00
52319;BME280;38258;51.148;14.068;2023-11-19T08:08:26;97610.28;;;2.91;100.00
52319;BME280;38258;51.148;14.068;2023-11-19T08:10:55;97605.94;;;2.93;100.00
52319;BME280;38258;51.148;14.068;2023-11-19T08:13:23;97609.34;;;2.97;100.00
52319;BME280;38258;51.148;14.068;2023-11-19T08:15:50;97589.44;;;3.07;100.00
52319;BME280;38258;51.148;14.068;2023-11-19T08:18:17;97573.03;;;3.11;100.00
52319;BME280;38258;51.148;14.068;2023-11-19T08:20:44;97592.72;;;3.23;100.00
52319;BME280;38258;51.148;14.068;2023-11-19T08:23:13;97602.13;;;3.27;100.00
52319;BME280;38258;51.148;14.068;2023-11-19T08:25:39;97608.09;;;3.32;100.00
52319;BME280;38258;51.148;14.068;2023-11-19T08:28:06;97605.31;;;3.48;100.00
52319;BME280;38258;51.148;14.068;2023-11-19T08:30:34;97596.63;;;3.55;100.00
52319;BME280;38258;51.148;14.068;2023-11-19T08:33:01;97603.47;;;3.59;100.00
52319;BME280;38258;51.148;14.068;2023-11-19T08:35:29;97591.31;;;3.67;100.00
52319;BME280;38258;51.148;14.068;2023-11-19T08:37:56;97588.47;;;3.85;100.00
52319;BME280;38258;51.148;14.068;2023-11-19T08:40:23;97580.53;;;3.97;100.00
52319;BME280;38258;51.148;14.068;2023-11-19T08:42:51;97583.16;;;3.95;100.00
52319;BME280;38258;51.148;14.068;2023-11-19T08:45:18;97581.91;;;4.20;100.00
52319;BME280;38258;51.148;14.068;2023-11-19T08:47:46;97590.50;;;4.23;100.00
52319;BME280;38258;51.148;14.068;2023-11-19T08:50:13;97584.47;;;4.23;100.00
52319;BME280;38258;51.148;14.068;2023-11-19T08:52:39;97577.25;;;4.41;100.00
52319;BME280;38258;51.148;14.068;2023-11-19T08:55:07;97580.53;;;4.53;100.00
52319;BME280;38258;51.148;14.068;2023-11-19T08:57:35;97579.56;;;4.59;100.00
52319;BME280;38258;51.148;14.068;2023-11-19T09:00:02;97585.72;;;4.50;100.00
52319;BME280;38258;51.148;14.068;2023-11-19T09:02:33;97593.59;;;4.46;100.00
52319;BME280;38258;51.148;14.068;2023-11-19T09:05:01;97600.63;;;4.37;100.00
52319;BME280;38258;51.148;14.068;2023-11-19T09:07:28;97606.28;;;4.61;100.00
52319;BME280;38258;51.148;14.068;2023-11-19T09:09:54;97605.53;;;4.55;100.00
52319;BME280;38258;51.148;14.068;2023-11-19T09:12:21;97610.47;;;4.70;100.00
52319;BME280;38258;51.148;14.068;2023-11-19T09:14:48;97607.06;;;4.66;100.00
52319;BME280;38258;51.148;14.068;2023-11-19T09:17:15;97622.59;;;4.65;100.00
52319;BME280;38258;51.148;14.068;2023-11-19T09:19:43;97606.97;;;4.71;100.00
52319;BME280;38258;51.148;14.068;2023-11-19T09:22:11;97606.25;;;4.63;100.00
52319;BME280;38258;51.148;14.068;2023-11-19T09:24:38;97593.16;;;4.72;100.00
52319;BME280;38258;51.148;14.068;2023-11-19T09:27:05;97599.16;;;4.74;100.00
52319;BME280;38258;51.148;14.068;2023-11-19T09:29:32;97608.56;;;4.80;100.00
52319;BME280;38258;51.148;14.068;2023-11-19T09:31:59;97602.41;;;4.86;100.00
52319;BME280;38258;51.148;14.068;2023-11-19T09:34:26;97614.34;;;4.94;100.00
52319;BME280;38258;51.148;14.068;2023-11-19T09:36:53;97598.84;;;4.91;100.00
52319;BME280;38258;51.148;14.068;2023-11-19T09:39:21;97598.56;;;5.07;100.00
52319;BME280;38258;51.148;14.068;2023-11-19T09:41:48;97593.47;;;5.02;100.00
52319;BME280;38258;51.148;14.068;2023-11-19T09:44:15;97595.84;;;5.13;100.00
52319;BME280;38258;51.148;14.068;2023-11-19T09:46:44;97590.28;;;5.33;100.00
52319;BME280;38258;51.148;14.068;2023-11-19T09:49:11;97584.59;;;5.57;100.00
52319;BME280;38258;51.148;14.068;2023-11-19T09:51:39;97585.25;;;5.66;100.00
52319;BME280;38258;51.148;14.068;2023-11-19T09:54:06;97587.31;;;5.93;100.00
52319;BME280;38258;51.148;14.068;2023-11-19T09:56:35;97585.41;;;6.01;100.00
52319;BME280;38258;51.148;14.068;2023-11-19T09:59:05;97579.13;;;6.12;100.00
52319;BME280;38258;51.148;14.068;2023-11-19T10:01:31;97572.03;;;6.18;100.00
52319;BME280;38258;51.148;14.068;2023-11-19T10:04:00;97568.84;;;6.43;100.00
52319;BME280;38258;51.148;14.068;2023-11-19T10:06:28;97572.16;;;6.50;100.00
52319;BME280;38258;51.148;14.068;2023-11-19T10:08:55;97572.44;;;6.72;100.00
52319;BME280;38258;51.148;14.068;2023-11-19T10:11:22;97563.81;;;7.05;100.00
52319;BME280;38258;51.148;14.068;2023-11-19T10:13:51;97556.28;;;7.56;100.00
52319;BME280;38258;51.148;14.068;2023-11-19T10:16:18;97557.47;;;8.31;100.00
52319;BME280;38258;51.148;14.068;2023-11-19T10:18:45;97549.78;;;9.53;100.00
52319;BME280;38258;51.148;14.068;2023-11-19T10:21:17;97555.47;;;9.87;100.00
52319;BME280;38258;51.148;14.068;2023-11-19T10:23:48;97543.81;;;9.96;100.00
52319;BME280;38258;51.148;14.068;2023-11-19T10:26:16;97536.25;;;9.66;100.00
52319;BME280;38258;51.148;14.068;2023-11-19T10:28:43;97543.00;;;10.38;100.00
52319;BME280;38258;51.148;14.068;2023-11-19T10:31:13;97545.41;;;10.65;100.00
52319;BME280;38258;51.148;14.068;2023-11-19T10:33:39;97551.81;;;10.58;100.00
52319;BME280;38258;51.148;14.068;2023-11-19T10:36:07;97545.16;;;10.71;100.00
52319;BME280;38258;51.148;14.068;2023-11-19T10:38:34;97548.81;;;10.67;100.00
52319;BME280;38258;51.148;14.068;2023-11-19T10:41:00;97555.97;;;11.24;100.00
52319;BME280;38258;51.148;14.068;2023-11-19T10:43:27;97550.53;;;11.48;100.00
52319;BME280;38258;51.148;14.068;2023-11-19T10:46:09;97563.22;;;11.38;100.00
52319;BME280;38258;51.148;14.068;2023-11-19T10:48:38;97554.16;;;11.65;100.00
52319;BME280;38258;51.148;14.068;2023-11-19T10:51:06;97544.94;;;11.37;100.00
52319;BME280;38258;51.148;14.068;2023-11-19T10:53:36;97549.06;;;10.61;100.00
52319;BME280;38258;51.148;14.068;2023-11-19T10:56:06;97559.75;;;9.66;100.00
52319;BME280;38258;51.148;14.068;2023-11-19T10:58:35;97556.59;;;9.57;100.00
52319;BME280;38258;51.148;14.068;2023-11-19T11:01:07;97553.16;;;9.33;100.00
52319;BME280;38258;51.148;14.068;2023-11-19T11:03:40;97545.25;;;9.34;100.00
52319;BME280;38258;51.148;14.068;2023-11-19T11:06:07;97560.00;;;9.36;100.00
52319;BME280;38258;51.148;14.068;2023-11-19T11:08:37;97553.25;;;10.22;100.00
52319;BME280;38258;51.148;14.068;2023-11-19T11:11:05;97556.44;;;9.62;100.00
52319;BME280;38258;51.148;14.068;2023-11-19T11:13:33;97552.22;;;10.04;100.00
52319;BME280;38258;51.148;14.068;2023-11-19T11:16:00;97545.56;;;10.17;100.00
52319;BME280;38258;51.148;14.068;2023-11-19T11:18:27;97546.69;;;9.66;100.00
52319;BME280;38258;51.148;14.068;2023-11-19T11:20:57;97538.66;;;9.48;100.00
52319;BME280;38258;51.148;14.068;2023-11-19T11:26:40;97552.16;;;9.83;100.00
52319;BME280;38258;51.148;14.068;2023-11-19T11:29:17;97559.91;;;10.29;100.00
52319;BME280;38258;51.148;14.068;2023-11-19T11:31:54;97554.03;;;9.80;100.00
52319;BME280;38258;51.148;14.068;2023-11-19T11:34:42;97547.88;;;9.81;100.00
52319;BME280;38258;51.148;14.068;2023-11-19T11:37:19;97552.72;;;9.68;100.00
52319;BME280;38258;51.148;14.068;2023-11-19T11:39:49;97551.59;;;9.75;100.00
52319;BME280;38258;51.148;14.068;2023-11-19T11:42:35;97548.00;;;10.44;100.00
52319;BME280;38258;51.148;14.068;2023-11-19T11:45:04;97561.22;;;10.41;100.00
52319;BME280;38258;51.148;14.068;2023-11-19T11:50:34;97551.72;;;10.16;100.00
52319;BME280;38258;51.148;14.068;2023-11-19T11:53:18;97545.75;;;9.90;100.00
52319;BME280;38258;51.148;14.068;2023-11-19T11:56:00;97554.38;;;9.93;100.00
52319;BME280;38258;51.148;14.068;2023-11-19T11:58:32;97546.63;;;10.13;100.00
52319;BME280;38258;51.148;14.068;2023-11-19T12:01:04;97563.53;;;10.04;100.00
52319;BME280;38258;51.148;14.068;2023-11-19T12:03:37;97559.91;;;10.52;100.00
52319;BME280;38258;51.148;14.068;2023-11-19T12:06:05;97556.75;;;10.21;100.00
52319;BME280;38258;51.148;14.068;2023-11-19T12:08:35;97552.34;;;10.01;100.00
52319;BME280;38258;51.148;14.068;2023-11-19T12:11:02;97576.69;;;10.01;100.00
52319;BME280;38258;51.148;14.068;2023-11-19T12:13:46;97600.81;;;9.62;100.00
52319;BME280;38258;51.148;14.068;2023-11-19T12:16:14;97624.69;;;8.48;100.00
52319;BME280;38258;51.148;14.068;2023-11-19T12:18:41;97600.59;;;7.54;100.00
52319;BME280;38258;51.148;14.068;2023-11-19T12:21:08;97585.81;;;7.23;100.00
52319;BME280;38258;51.148;14.068;2023-11-19T12:23:52;97572.81;;;7.23;100.00
52319;BME280;38258;51.148;14.068;2023-11-19T12:26:33;97565.56;;;7.34;100.00
52319;BME280;38258;51.148;14.068;2023-11-19T12:29:01;97556.75;;;7.40;100.00
52319;BME280;38258;51.148;14.068;2023-11-19T12:31:32;97545.06;;;7.54;100.00
52319;BME280;38258;51.148;14.068;2023-11-19T12:34:05;97536.69;;;7.72;100.00
52319;BME280;38258;51.148;14.068;2023-11-19T12:36:34;97543.91;;;7.64;100.00
52319;BME280;38258;51.148;14.068;2023-11-19T12:39:02;97563.19;;;7.27;100.00
52319;BME280;38258;51.148;14.068;2023-11-19T12:41:30;97526.41;;;7.39;100.00
52319;BME280;38258;51.148;14.068;2023-11-19T12:44:09;97557.97;;;7.58;100.00
52319;BME280;38258;51.148;14.068;2023-11-19T12:46:37;97558.50;;;7.70;100.00
52319;BME280;38258;51.148;14.068;2023-11-19T12:49:05;97568.75;;;7.74;100.00
52319;BME280;38258;51.148;14.068;2023-11-19T12:51:35;97565.16;;;7.78;100.00
52319;BME280;38258;51.148;14.068;2023-11-19T12:54:04;97560.09;;;8.02;100.00
52319;BME280;38258;51.148;14.068;2023-11-19T12:56:32;97552.84;;;8.12;100.00
52319;BME280;38258;51.148;14.068;2023-11-19T12:59:10;97542.28;;;8.17;100.00
52319;BME280;38258;51.148;14.068;2023-11-19T13:01:38;97534.38;;;8.20;100.00